Time;durP1;ratioP1;P1;durP2;ratioP2;P2;SDS_P1;SDS_P2;PMS_P1;PMS_P2;Temp;Humidity;BMP_temperature;BMP_pressure;BME280_temperature;BME280_humidity;BME280_pressure;Samples;Min_cycle;Max_cycle;Signal;HPM_P1;HPM_P2
2023/05/18 00:01:13;;;;;;;;;;;8.30;99.90;;;;;;4943176;28;19926;-88
2023/05/18 00:03:41;;;;;;;;;;;8.30;99.90;;;;;;4958282;28;19949;-88
2023/05/18 00:06:07;;;;;;;;;;;8.50;99.90;;;;;;4942922;28;19926;-87
2023/05/18 00:08:33;;;;;;;;;;;8.20;99.90;;;;;;4958979;28;19933;-89
2023/05/18 00:11:00;;;;;;;;;;;9.00;99.90;;;;;;4977836;28;19934;-88
2023/05/18 00:13:25;;;;;;;;;;;8.90;99.90;;;;;;4982180;28;19945;-88
2023/05/18 00:15:51;;;;;;;;;;;8.10;99.90;;;;;;4965070;28;20461;-88
2023/05/18 00:18:17;;;;;;;;;;;8.00;99.90;;;;;;4982384;28;19926;-88
2023/05/18 00:20:45;;;;;;;;;;;8.00;99.90;;;;;;4949359;28;19933;-88
2023/05/18 00:23:15;;;;;;;;;;;7.90;99.90;;;;;;4982199;28;19926;-88
2023/05/18 00:25:43;;;;;;;;;;;7.80;99.90;;;;;;4965281;28;19926;-88
2023/05/18 00:28:11;;;;;;;;;;;7.80;99.90;;;;;;4965075;28;19976;-87
2023/05/18 00:30:37;;;;;;;;;;;7.90;99.90;;;;;;4964791;28;19937;-88
2023/05/18 00:33:05;;;;;;;;;;;7.60;99.90;;;;;;4965192;28;20474;-88
2023/05/18 00:35:30;;;;;;;;;;;7.50;99.90;;;;;;4950181;28;19941;-88
2023/05/18 00:37:56;;;;;;;;;;;7.40;99.90;;;;;;4965339;28;20362;-88
2023/05/18 00:40:23;;;;;;;;;;;7.40;99.90;;;;;;4949065;28;20031;-88
2023/05/18 00:42:49;;;;;;;;;;;7.60;99.90;;;;;;4981068;28;19926;-88
2023/05/18 00:45:15;;;;;;;;;;;7.20;99.90;;;;;;4964908;28;19949;-88
2023/05/18 00:47:43;;;;;;;;;;;7.40;99.90;;;;;;4981001;28;19976;-88
2023/05/18 00:50:09;;;;;;;;;;;6.60;99.90;;;;;;4980631;28;19973;-88
2023/05/18 00:52:35;;;;;;;;;;;7.40;99.90;;;;;;4964125;28;20428;-88
2023/05/18 00:55:01;;;;;;;;;;;7.50;99.90;;;;;;4965526;28;19925;-88
2023/05/18 00:57:29;;;;;;;;;;;7.70;99.90;;;;;;4949005;28;19926;-88
2023/05/18 00:59:57;;;;;;;;;;;7.50;99.90;;;;;;4980695;28;19980;-88
2023/05/18 01:02:23;;;;;;;;;;;8.00;99.90;;;;;;4964576;28;19933;-87
2023/05/18 01:04:51;;;;;;;;;;;7.50;99.90;;;;;;4964781;28;19926;-88
2023/05/18 01:07:17;;;;;;;;;;;7.40;99.90;;;;;;4980796;28;19929;-88
2023/05/18 01:09:43;;;;;;;;;;;5.90;99.90;;;;;;4964087;28;20068;-88
2023/05/18 01:12:19;;;;;;;;;;;6.00;99.90;;;;;;4980626;28;20376;-88
2023/05/18 01:14:53;;;;;;;;;;;7.20;99.90;;;;;;4965309;28;19930;-88
2023/05/18 01:17:18;;;;;;;;;;;8.10;99.90;;;;;;4964372;28;19965;-89
2023/05/18 01:20:02;;;;;;;;;;;7.50;99.90;;;;;;4964303;28;19999;-88
2023/05/18 01:22:50;;;;;;;;;;;7.80;99.90;;;;;;4964022;28;19926;-88
2023/05/18 01:25:35;;;;;;;;;;;7.60;99.90;;;;;;4965062;28;19930;-87
2023/05/18 01:28:05;;;;;;;;;;;7.60;99.90;;;;;;4964729;28;20453;-88
2023/05/18 01:30:32;;;;;;;;;;;8.10;99.90;;;;;;4963970;28;20385;-88
2023/05/18 01:32:58;;;;;;;;;;;7.70;99.90;;;;;;4980981;28;20273;-89
2023/05/18 01:35:23;;;;;;;;;;;7.90;99.90;;;;;;4980973;28;19932;-88
2023/05/18 01:37:52;;;;;;;;;;;7.70;99.90;;;;;;4964085;28;19953;-88
2023/05/18 01:40:20;;;;;;;;;;;7.70;99.90;;;;;;4964265;28;19925;-88
2023/05/18 01:42:49;;;;;;;;;;;9.00;99.90;;;;;;4963976;28;19941;-88
2023/05/18 01:45:20;;;;;;;;;;;7.90;99.90;;;;;;4964029;28;19926;-88
2023/05/18 01:47:47;;;;;;;;;;;7.80;99.90;;;;;;4963939;28;20386;-88
2023/05/18 01:50:15;;;;;;;;;;;7.50;99.90;;;;;;4963562;28;19926;-88
2023/05/18 01:52:41;;;;;;;;;;;7.40;99.90;;;;;;4963364;28;19926;-88
2023/05/18 01:55:08;;;;;;;;;;;7.40;99.90;;;;;;4963707;28;19932;-88
2023/05/18 01:57:40;;;;;;;;;;;7.40;99.90;;;;;;4963624;28;19926;-88
2023/05/18 02:00:08;;;;;;;;;;;7.30;99.90;;;;;;4980004;28;19930;-88
2023/05/18 02:02:34;;;;;;;;;;;7.60;99.90;;;;;;4963602;28;20322;-88
2023/05/18 02:05:04;;;;;;;;;;;7.30;99.90;;;;;;4979599;28;20293;-88
2023/05/18 02:07:32;;;;;;;;;;;7.70;99.90;;;;;;4980360;28;19930;-88
2023/05/18 02:10:00;;;;;;;;;;;7.30;99.90;;;;;;4978901;28;19925;-88
2023/05/18 02:12:26;;;;;;;;;;;7.40;99.90;;;;;;4963618;28;19929;-87
2023/05/18 02:14:54;;;;;;;;;;;9.80;99.90;;;;;;4963603;28;19926;-88
2023/05/18 02:17:20;;;;;;;;;;;7.60;99.90;;;;;;4963437;28;19932;-88
2023/05/18 02:19:49;;;;;;;;;;;7.50;99.90;;;;;;4963250;28;19929;-88
2023/05/18 02:22:15;;;;;;;;;;;7.50;99.90;;;;;;4964156;28;19925;-87
2023/05/18 02:24:40;;;;;;;;;;;8.00;99.90;;;;;;4947537;28;20393;-88
2023/05/18 02:27:13;;;;;;;;;;;7.60;99.90;;;;;;4980072;28;19926;-87
2023/05/18 02:29:39;;;;;;;;;;;7.80;99.90;;;;;;4963176;28;19925;-89
2023/05/18 02:32:05;;;;;;;;;;;7.90;99.90;;;;;;4963199;28;19932;-88
2023/05/18 02:34:31;;;;;;;;;;;7.70;99.90;;;;;;4969021;28;19992;-89
2023/05/18 02:37:06;;;;;;;;;;;7.50;99.90;;;;;;4970561;28;20364;-87
2023/05/18 02:39:32;;;;;;;;;;;7.50;99.90;;;;;;4964393;28;19926;-88
2023/05/18 02:41:58;;;;;;;;;;;6.60;99.90;;;;;;4981116;28;19996;-88
2023/05/18 02:44:24;;;;;;;;;;;8.20;99.90;;;;;;4969025;28;19933;-87
2023/05/18 02:46:50;;;;;;;;;;;7.50;99.90;;;;;;4968305;28;19933;-88
2023/05/18 02:49:18;;;;;;;;;;;6.60;99.90;;;;;;4979131;28;20386;-88
2023/05/18 02:51:44;;;;;;;;;;;7.70;99.90;;;;;;4962406;28;19925;-88
2023/05/18 02:54:10;;;;;;;;;;;5.40;99.90;;;;;;4962617;28;19933;-88
2023/05/18 02:56:35;;;;;;;;;;;7.50;99.90;;;;;;4978603;28;19929;-88
2023/05/18 02:59:02;;;;;;;;;;;7.50;99.90;;;;;;4962239;28;20045;-88
2023/05/18 03:01:33;;;;;;;;;;;7.50;99.90;;;;;;4946343;28;20374;-88
2023/05/18 03:03:59;;;;;;;;;;;7.60;99.90;;;;;;4962448;28;19932;-88
2023/05/18 03:06:25;;;;;;;;;;;7.80;99.90;;;;;;4977875;28;19925;-88
2023/05/18 03:08:53;;;;;;;;;;;7.70;99.90;;;;;;4962033;28;20013;-89
2023/05/18 03:11:22;;;;;;;;;;;7.50;99.90;;;;;;4962335;28;20015;-88
2023/05/18 03:13:48;;;;;;;;;;;7.50;99.90;;;;;;4978292;28;19977;-88
2023/05/18 03:16:14;;;;;;;;;;;7.50;99.90;;;;;;4961847;28;19925;-88
2023/05/18 03:18:40;;;;;;;;;;;5.80;99.90;;;;;;4961714;28;19926;-89
2023/05/18 03:21:06;;;;;;;;;;;7.60;99.90;;;;;;4978935;28;19930;-88
2023/05/18 03:23:35;;;;;;;;;;;6.80;99.90;;;;;;4962113;28;20005;-88
2023/05/18 03:26:02;;;;;;;;;;;7.50;99.90;;;;;;4962033;28;19926;-88
2023/05/18 03:28:30;;;;;;;;;;;8.20;99.90;;;;;;4978101;28;19925;-88
2023/05/18 03:30:56;;;;;;;;;;;7.80;99.90;;;;;;4961818;28;19929;-88
2023/05/18 03:33:22;;;;;;;;;;;7.60;99.90;;;;;;4978041;28;19948;-88
2023/05/18 03:35:55;;;;;;;;;;;8.20;99.90;;;;;;4961264;28;19925;-90
2023/05/18 03:38:28;;;;;;;;;;;7.40;99.90;;;;;;4962077;28;19926;-88
2023/05/18 03:40:56;;;;;;;;;;;6.50;99.90;;;;;;4978877;28;19926;-88
2023/05/18 03:43:25;;;;;;;;;;;8.30;99.90;;;;;;4961760;28;20060;-88
2023/05/18 03:45:51;;;;;;;;;;;7.70;99.90;;;;;;4978584;28;20275;-87
2023/05/18 03:48:17;;;;;;;;;;;7.40;99.90;;;;;;4961998;28;19926;-87
2023/05/18 03:50:43;;;;;;;;;;;7.70;99.90;;;;;;4961312;28;19926;-88
2023/05/18 03:53:08;;;;;;;;;;;7.50;99.90;;;;;;4977698;28;19984;-88
2023/05/18 03:55:34;;;;;;;;;;;7.40;99.90;;;;;;4961629;28;19976;-88
2023/05/18 03:58:02;;;;;;;;;;;8.10;99.90;;;;;;4977626;28;19926;-88
2023/05/18 04:00:29;;;;;;;;;;;7.70;99.90;;;;;;4961638;28;20274;-88
2023/05/18 04:02:55;;;;;;;;;;;5.40;99.90;;;;;;4977721;28;19932;-88
2023/05/18 04:05:31;;;;;;;;;;;8.10;99.90;;;;;;4946346;28;19926;-88
2023/05/18 04:07:59;;;;;;;;;;;7.50;99.90;;;;;;4946500;28;20013;-88
2023/05/18 04:10:25;;;;;;;;;;;7.50;99.90;;;;;;4961752;28;20363;-87
2023/05/18 04:12:51;;;;;;;;;;;7.40;99.90;;;;;;4961760;28;19969;-88
2023/05/18 04:15:19;;;;;;;;;;;7.30;99.90;;;;;;4977584;28;19925;-88
2023/05/18 04:17:44;;;;;;;;;;;8.20;99.90;;;;;;4961617;28;19976;-88
2023/05/18 04:20:14;;;;;;;;;;;7.40;99.90;;;;;;4961448;28;20017;-88
2023/05/18 04:22:46;;;;;;;;;;;7.80;99.90;;;;;;4977174;28;19926;-87
2023/05/18 04:25:19;;;;;;;;;;;6.40;99.90;;;;;;4961667;28;20020;-89
2023/05/18 04:27:47;;;;;;;;;;;7.50;99.90;;;;;;4961015;28;20393;-88
2023/05/18 04:30:12;;;;;;;;;;;8.20;99.90;;;;;;4960949;28;19932;-88
2023/05/18 04:32:41;;;;;;;;;;;7.50;99.90;;;;;;4961392;28;19925;-88
2023/05/18 04:35:10;;;;;;;;;;;7.20;99.90;;;;;;4961306;28;19926;-87
2023/05/18 04:37:39;;;;;;;;;;;10.10;99.90;;;;;;4977427;28;19969;-87
2023/05/18 04:40:06;;;;;;;;;;;7.60;99.90;;;;;;4962157;28;19925;-87
2023/05/18 04:42:34;;;;;;;;;;;8.10;99.90;;;;;;4977385;28;19926;-88
2023/05/18 04:45:00;;;;;;;;;;;7.80;99.90;;;;;;4977528;28;19926;-88
2023/05/18 04:47:28;;;;;;;;;;;7.80;99.90;;;;;;4961043;28;19929;-86
2023/05/18 04:49:54;;;;;;;;;;;7.80;99.90;;;;;;4961515;28;20367;-88
2023/05/18 04:52:23;;;;;;;;;;;8.10;99.90;;;;;;4977719;28;19941;-88
2023/05/18 04:54:49;;;;;;;;;;;7.70;99.90;;;;;;4978182;28;19926;-87
2023/05/18 04:57:15;;;;;;;;;;;8.50;99.90;;;;;;4962848;28;19977;-88
2023/05/18 04:59:41;;;;;;;;;;;8.00;99.90;;;;;;4966729;28;19933;-89
2023/05/18 05:02:10;;;;;;;;;;;7.70;99.90;;;;;;4968175;28;19940;-87
2023/05/18 05:04:36;;;;;;;;;;;7.80;99.90;;;;;;4966417;28;19985;-87
2023/05/18 05:07:05;;;;;;;;;;;7.90;99.90;;;;;;4967231;28;19930;-88
2023/05/18 05:09:31;;;;;;;;;;;7.90;99.90;;;;;;4982193;28;19971;-88
2023/05/18 05:11:57;;;;;;;;;;;7.70;99.90;;;;;;4965469;28;19926;-87
2023/05/18 05:14:25;;;;;;;;;;;7.60;99.90;;;;;;4981843;28;19976;-88
2023/05/18 05:16:50;;;;;;;;;;;8.10;99.90;;;;;;4964871;28;20032;-87
2023/05/18 05:19:16;;;;;;;;;;;8.10;99.90;;;;;;4965660;28;19969;-88
2023/05/18 05:21:42;;;;;;;;;;;8.50;99.90;;;;;;4980667;28;20421;-88
2023/05/18 05:24:07;;;;;;;;;;;9.50;99.90;;;;;;4964581;28;20286;-88
2023/05/18 05:26:34;;;;;;;;;;;8.20;99.90;;;;;;4964224;28;20394;-88
2023/05/18 05:29:05;;;;;;;;;;;8.20;99.90;;;;;;4963844;28;20393;-88
2023/05/18 05:31:30;;;;;;;;;;;8.20;99.90;;;;;;4981015;28;20228;-88
2023/05/18 05:33:58;;;;;;;;;;;8.70;99.90;;;;;;4964156;28;19932;-88
2023/05/18 05:36:24;;;;;;;;;;;8.70;99.90;;;;;;4979894;28;19926;-87
2023/05/18 05:38:50;;;;;;;;;;;8.80;99.90;;;;;;4980094;28;19973;-90
2023/05/18 05:41:18;;;;;;;;;;;8.40;99.90;;;;;;4964273;28;19930;-88
2023/05/18 05:43:43;;;;;;;;;;;8.80;99.90;;;;;;4963887;28;20060;-87
2023/05/18 05:46:16;;;;;;;;;;;9.70;99.90;;;;;;4964333;28;20058;-87
2023/05/18 05:48:42;;;;;;;;;;;8.60;99.90;;;;;;4964762;28;19925;-88
2023/05/18 05:51:08;;;;;;;;;;;8.60;99.90;;;;;;4963512;28;19925;-88
2023/05/18 05:53:36;;;;;;;;;;;6.60;99.90;;;;;;4948655;28;19926;-87
2023/05/18 05:56:02;;;;;;;;;;;8.90;99.90;;;;;;4948528;28;19932;-87
2023/05/18 05:58:27;;;;;;;;;;;8.80;99.90;;;;;;4979708;28;19926;-87
2023/05/18 06:00:56;;;;;;;;;;;9.00;99.90;;;;;;4964202;28;19929;-87
2023/05/18 06:03:22;;;;;;;;;;;9.20;99.90;;;;;;4979566;28;20260;-88
2023/05/18 06:05:55;;;;;;;;;;;9.10;99.90;;;;;;4979907;28;19933;-88
2023/05/18 06:08:23;;;;;;;;;;;9.20;99.90;;;;;;4963845;28;19926;-87
2023/05/18 06:10:50;;;;;;;;;;;9.30;99.90;;;;;;4977963;28;19925;-87
2023/05/18 06:13:21;;;;;;;;;;;9.50;99.90;;;;;;4947698;28;19933;-88
2023/05/18 06:15:47;;;;;;;;;;;9.50;99.90;;;;;;4964469;28;19929;-88
2023/05/18 06:18:12;;;;;;;;;;;9.40;99.90;;;;;;4962965;28;19925;-87
2023/05/18 06:20:38;;;;;;;;;;;9.90;99.90;;;;;;4979029;28;20013;-88
2023/05/18 06:23:04;;;;;;;;;;;9.70;99.90;;;;;;4963989;28;20016;-87
2023/05/18 06:25:34;;;;;;;;;;;9.70;99.90;;;;;;4947275;28;19926;-88
2023/05/18 06:27:59;;;;;;;;;;;9.50;99.90;;;;;;4947625;28;20393;-88
2023/05/18 06:30:25;;;;;;;;;;;9.70;99.90;;;;;;4962856;28;20020;-88
2023/05/18 06:32:54;;;;;;;;;;;10.20;99.90;;;;;;4963673;28;19926;-88
2023/05/18 06:35:20;;;;;;;;;;;10.60;99.90;;;;;;4979749;28;19980;-88
2023/05/18 06:37:48;;;;;;;;;;;9.50;99.90;;;;;;4962588;28;20351;-88
2023/05/18 06:40:13;;;;;;;;;;;9.90;99.90;;;;;;4962821;28;20020;-88
2023/05/18 06:42:39;;;;;;;;;;;9.60;99.90;;;;;;4963051;28;19926;-89
2023/05/18 06:45:05;;;;;;;;;;;10.00;99.90;;;;;;4978991;28;19926;-88
2023/05/18 06:47:33;;;;;;;;;;;10.00;99.90;;;;;;4947367;28;19926;-88
2023/05/18 06:50:01;;;;;;;;;;;9.90;99.90;;;;;;4965554;28;19932;-86
2023/05/18 06:52:27;;;;;;;;;;;10.20;99.90;;;;;;4969138;28;20010;-86
2023/05/18 06:54:52;;;;;;;;;;;10.20;99.90;;;;;;4963681;28;20022;-88
2023/05/18 06:57:18;;;;;;;;;;;10.10;99.90;;;;;;4963413;28;20029;-88
2023/05/18 06:59:52;;;;;;;;;;;9.90;99.90;;;;;;4947781;28;19996;-87
2023/05/18 07:02:18;;;;;;;;;;;10.40;99.90;;;;;;4964032;28;19926;-87
2023/05/18 07:04:46;;;;;;;;;;;9.80;99.90;;;;;;4961910;28;19926;-87
2023/05/18 07:07:12;;;;;;;;;;;9.90;99.90;;;;;;4979225;28;19926;-87
2023/05/18 07:09:40;;;;;;;;;;;10.20;99.90;;;;;;4961634;28;19949;-87
2023/05/18 07:12:06;;;;;;;;;;;12.20;99.90;;;;;;4963181;28;20441;-87
2023/05/18 07:14:32;;;;;;;;;;;10.20;99.90;;;;;;4963095;28;20035;-89
2023/05/18 07:17:01;;;;;;;;;;;10.80;99.90;;;;;;4946344;28;19926;-88
2023/05/18 07:19:31;;;;;;;;;;;10.00;99.90;;;;;;4962664;28;19929;-88
2023/05/18 07:21:58;;;;;;;;;;;10.10;99.90;;;;;;4978518;28;19933;-88
2023/05/18 07:24:24;;;;;;;;;;;10.00;99.90;;;;;;4978833;28;19926;-88
2023/05/18 07:26:50;;;;;;;;;;;10.20;99.90;;;;;;4962217;28;19926;-89
2023/05/18 07:29:15;;;;;;;;;;;10.60;99.90;;;;;;4978077;28;19980;-88
2023/05/18 07:31:43;;;;;;;;;;;10.00;99.90;;;;;;4962230;28;20021;-88
2023/05/18 07:34:11;;;;;;;;;;;11.20;99.90;;;;;;4961159;28;19926;-88
2023/05/18 07:36:37;;;;;;;;;;;10.10;99.90;;;;;;4946938;28;20016;-88
2023/05/18 07:39:03;;;;;;;;;;;10.10;99.90;;;;;;4978626;28;20444;-89
2023/05/18 07:41:30;;;;;;;;;;;10.60;99.90;;;;;;4977821;28;19929;-88
2023/05/18 07:43:59;;;;;;;;;;;10.20;99.90;;;;;;4961743;28;19985;-88
2023/05/18 07:46:25;;;;;;;;;;;8.30;99.90;;;;;;4962048;28;20270;-88
2023/05/18 07:48:53;;;;;;;;;;;8.50;99.90;;;;;;4961889;28;20016;-88
2023/05/18 07:51:18;;;;;;;;;;;10.90;99.90;;;;;;4945746;28;20002;-87
2023/05/18 07:53:45;;;;;;;;;;;10.50;99.90;;;;;;4962204;28;19929;-88
2023/05/18 07:56:11;;;;;;;;;;;8.30;99.90;;;;;;4961941;28;19992;-90
2023/05/18 07:58:36;;;;;;;;;;;10.80;99.90;;;;;;4961715;28;20350;-89
2023/05/18 08:01:11;;;;;;;;;;;10.90;99.90;;;;;;4977270;28;19925;-87
2023/05/18 08:03:45;;;;;;;;;;;11.30;99.90;;;;;;4962353;28;20277;-89
2023/05/18 08:06:13;;;;;;;;;;;11.30;99.90;;;;;;4947963;28;19948;-89
2023/05/18 08:08:44;;;;;;;;;;;11.30;99.90;;;;;;4961865;28;20330;-89
2023/05/18 08:11:10;;;;;;;;;;;11.20;99.90;;;;;;4962292;28;20032;-89
2023/05/18 08:13:44;;;;;;;;;;;12.40;99.90;;;;;;4961687;28;20400;-88
2023/05/18 08:16:12;;;;;;;;;;;11.50;99.90;;;;;;4946124;28;19961;-89
2023/05/18 08:18:45;;;;;;;;;;;12.20;99.90;;;;;;4961836;28;19925;-89
2023/05/18 08:21:16;;;;;;;;;;;12.60;99.90;;;;;;4962935;28;19925;-87
2023/05/18 08:23:47;;;;;;;;;;;11.20;99.90;;;;;;4962616;28;19926;-88
2023/05/18 08:26:19;;;;;;;;;;;12.00;99.90;;;;;;4961396;28;20273;-87
2023/05/18 08:28:45;;;;;;;;;;;11.20;99.90;;;;;;4961275;28;19925;-86
2023/05/18 08:31:11;;;;;;;;;;;11.60;99.90;;;;;;4961338;28;19981;-84
2023/05/18 08:33:39;;;;;;;;;;;11.70;99.90;;;;;;4963979;28;20020;-87
2023/05/18 08:36:05;;;;;;;;;;;12.00;99.90;;;;;;4949252;28;19977;-86
2023/05/18 08:38:34;;;;;;;;;;;11.60;99.90;;;;;;4948984;28;20290;-87
2023/05/18 08:41:20;;;;;;;;;;;11.60;99.90;;;;;;4949877;28;19972;-87
2023/05/18 08:43:52;;;;;;;;;;;12.20;99.90;;;;;;4965039;28;19925;-89
2023/05/18 08:46:32;;;;;;;;;;;11.80;99.90;;;;;;4981526;28;19925;-90
2023/05/18 08:48:59;;;;;;;;;;;12.00;99.90;;;;;;4980920;28;20010;-87
2023/05/18 08:51:27;;;;;;;;;;;12.10;99.90;;;;;;4948616;28;19926;-88
2023/05/18 08:53:56;;;;;;;;;;;12.40;99.90;;;;;;4980959;28;20384;-89
2023/05/18 08:56:47;;;;;;;;;;;12.00;99.90;;;;;;4965725;28;19926;-90
2023/05/18 08:59:35;;;;;;;;;;;12.20;99.90;;;;;;4965520;28;20321;-90
2023/05/18 09:02:01;;;;;;;;;;;12.50;99.90;;;;;;4964533;28;19930;-90
2023/05/18 09:04:33;;;;;;;;;;;12.20;99.90;;;;;;4948670;28;20481;-89
2023/05/18 09:07:03;;;;;;;;;;;12.70;99.90;;;;;;4964748;28;19925;-91
2023/05/18 09:09:32;;;;;;;;;;;13.00;99.90;;;;;;4963736;28;19938;-88
2023/05/18 09:12:06;;;;;;;;;;;12.50;99.90;;;;;;4964498;28;19925;-88
2023/05/18 09:14:31;;;;;;;;;;;15.10;99.90;;;;;;4964439;28;19932;-89
2023/05/18 09:16:57;;;;;;;;;;;12.80;99.90;;;;;;4964434;28;20020;-89
2023/05/18 09:19:23;;;;;;;;;;;13.20;99.90;;;;;;4980425;28;20278;-89
2023/05/18 09:21:59;;;;;;;;;;;13.10;99.90;;;;;;4949488;28;19925;-91
2023/05/18 09:24:25;;;;;;;;;;;13.10;99.90;;;;;;4980683;28;20266;-87
2023/05/18 09:26:56;;;;;;;;;;;12.90;99.90;;;;;;4948386;28;19926;-91
2023/05/18 09:29:23;;;;;;;;;;;12.60;99.90;;;;;;4949001;28;20365;-89
2023/05/18 09:31:48;;;;;;;;;;;13.00;99.90;;;;;;4980539;28;19933;-88
2023/05/18 09:34:18;;;;;;;;;;;13.20;99.90;;;;;;4980287;28;19925;-88
2023/05/18 09:36:48;;;;;;;;;;;13.20;99.90;;;;;;4964084;28;19933;-89
2023/05/18 09:39:14;;;;;;;;;;;13.60;99.90;;;;;;4964505;28;19933;-89
2023/05/18 09:41:40;;;;;;;;;;;13.40;99.90;;;;;;4980054;28;19926;-89
2023/05/18 09:44:11;;;;;;;;;;;13.50;99.90;;;;;;4980098;28;20358;-89
2023/05/18 09:46:42;;;;;;;;;;;13.60;99.90;;;;;;4980437;28;19925;-88
2023/05/18 09:49:10;;;;;;;;;;;14.00;99.90;;;;;;4948764;28;19933;-88
2023/05/18 09:51:38;;;;;;;;;;;11.70;99.90;;;;;;4964063;28;20408;-90
2023/05/18 09:54:07;;;;;;;;;;;13.90;99.90;;;;;;4948118;28;19933;-88
2023/05/18 09:56:36;;;;;;;;;;;13.70;99.90;;;;;;4963971;28;19972;-89
2023/05/18 09:59:15;;;;;;;;;;;13.90;98.20;;;;;;4963793;28;19977;-88
2023/05/18 10:02:04;;;;;;;;;;;14.00;97.90;;;;;;4963450;28;20457;-89
2023/05/18 10:04:51;;;;;;;;;;;11.70;96.50;;;;;;4963764;28;20262;-88
2023/05/18 10:07:25;;;;;;;;;;;13.60;98.70;;;;;;4950060;28;19930;-88
2023/05/18 10:10:02;;;;;;;;;;;14.00;99.80;;;;;;4960377;28;19934;-89
2023/05/18 10:12:30;;;;;;;;;;;13.90;99.40;;;;;;4960844;28;19933;-89
2023/05/18 10:14:58;;;;;;;;;;;13.70;98.80;;;;;;4944281;28;19930;-87
2023/05/18 10:17:26;;;;;;;;;;;14.00;98.80;;;;;;4976176;28;19926;-87
2023/05/18 10:19:54;;;;;;;;;;;14.10;98.80;;;;;;4959808;28;20013;-89
2023/05/18 10:22:22;;;;;;;;;;;14.00;98.00;;;;;;4959807;28;19926;-87
2023/05/18 10:24:49;;;;;;;;;;;14.00;98.70;;;;;;4959920;28;20012;-88
2023/05/18 10:27:22;;;;;;;;;;;13.90;99.70;;;;;;4976342;28;20314;-87
2023/05/18 10:29:51;;;;;;;;;;;14.10;98.90;;;;;;4960321;28;19926;-88
2023/05/18 10:32:19;;;;;;;;;;;14.20;97.00;;;;;;4977335;28;19926;-88
2023/05/18 10:34:48;;;;;;;;;;;13.90;98.70;;;;;;4959897;28;19930;-88
2023/05/18 10:37:17;;;;;;;;;;;14.30;96.80;;;;;;4943439;28;19928;-88
2023/05/18 10:39:44;;;;;;;;;;;14.00;97.40;;;;;;4959627;28;19929;-88
2023/05/18 10:42:10;;;;;;;;;;;14.50;97.60;;;;;;4959926;28;20020;-89
2023/05/18 10:44:39;;;;;;;;;;;13.50;99.40;;;;;;4959254;28;20037;-87
2023/05/18 10:47:07;;;;;;;;;;;14.10;96.50;;;;;;4975456;28;19927;-88
2023/05/18 10:49:32;;;;;;;;;;;14.20;96.90;;;;;;4974896;28;19933;-87
2023/05/18 10:51:58;;;;;;;;;;;14.30;97.50;;;;;;4959366;28;19926;-89
2023/05/18 10:54:25;;;;;;;;;;;14.90;98.60;;;;;;4975454;28;19926;-86
2023/05/18 10:56:54;;;;;;;;;;;15.20;97.00;;;;;;4942651;28;19926;-87
2023/05/18 10:59:22;;;;;;;;;;;14.50;95.40;;;;;;4959277;28;19930;-88
2023/05/18 11:01:48;;;;;;;;;;;14.40;95.60;;;;;;4959231;28;19956;-88
2023/05/18 11:04:14;;;;;;;;;;;14.90;96.20;;;;;;4960620;28;19932;-88
2023/05/18 11:06:40;;;;;;;;;;;13.70;98.00;;;;;;4962879;28;19985;-88
2023/05/18 11:09:06;;;;;;;;;;;14.80;96.00;;;;;;4961325;28;20024;-89
2023/05/18 11:11:55;;;;;;;;;;;15.10;95.30;;;;;;4962571;28;19925;-88
2023/05/18 11:14:27;;;;;;;;;;;13.00;92.10;;;;;;4964683;28;20371;-88
2023/05/18 11:16:53;;;;;;;;;;;14.90;93.70;;;;;;4981868;28;19932;-90
2023/05/18 11:19:25;;;;;;;;;;;14.60;96.30;;;;;;4962261;28;19925;-88
2023/05/18 11:21:51;;;;;;;;;;;14.70;94.20;;;;;;4962278;28;20279;-87
2023/05/18 11:24:17;;;;;;;;;;;15.00;93.90;;;;;;4978144;28;19976;-87
2023/05/18 11:26:44;;;;;;;;;;;12.90;95.40;;;;;;4977984;28;19925;-87
2023/05/18 11:29:23;;;;;;;;;;;14.70;94.20;;;;;;4977550;28;19973;-87
2023/05/18 11:31:53;;;;;;;;;;;14.90;93.50;;;;;;4961854;28;20336;-87
2023/05/18 11:34:35;;;;;;;;;;;15.10;92.80;;;;;;4961855;28;19973;-88
2023/05/18 11:37:01;;;;;;;;;;;15.10;93.10;;;;;;4945984;28;19984;-89
2023/05/18 11:39:29;;;;;;;;;;;14.90;93.00;;;;;;4962052;28;19925;-87
2023/05/18 11:41:59;;;;;;;;;;;15.10;93.20;;;;;;4961713;28;19932;-88
2023/05/18 11:44:26;;;;;;;;;;;15.20;93.40;;;;;;4961730;28;19980;-88
2023/05/18 11:47:01;;;;;;;;;;;15.40;93.60;;;;;;4977492;28;19926;-87
2023/05/18 11:49:43;;;;;;;;;;;15.80;90.80;;;;;;4961767;28;19926;-87
2023/05/18 11:52:14;;;;;;;;;;;15.50;91.00;;;;;;4961703;28;19926;-87
2023/05/18 11:54:45;;;;;;;;;;;14.20;90.20;;;;;;4946157;28;19925;-88
2023/05/18 11:57:12;;;;;;;;;;;15.50;91.60;;;;;;4961781;28;20468;-88
2023/05/18 11:59:47;;;;;;;;;;;15.50;92.70;;;;;;4978207;28;19933;-90
2023/05/18 12:02:31;;;;;;;;;;;15.60;92.00;;;;;;4977475;28;19980;-87
2023/05/18 12:05:26;;;;;;;;;;;15.30;90.40;;;;;;4977997;28;19926;-92
2023/05/18 12:08:03;;;;;;;;;;;14.20;90.10;;;;;;4955694;28;19930;-90
2023/05/18 12:10:34;;;;;;;;;;;15.50;91.70;;;;;;4960637;28;19976;-89
2023/05/18 12:13:01;;;;;;;;;;;14.30;93.60;;;;;;4961271;28;19925;-89
2023/05/18 12:15:27;;;;;;;;;;;13.30;91.30;;;;;;4962194;28;19926;-89
2023/05/18 12:17:59;;;;;;;;;;;15.20;92.50;;;;;;4960856;28;19933;-89
2023/05/18 12:20:35;;;;;;;;;;;15.70;92.30;;;;;;4961760;28;19969;-88
2023/05/18 12:23:21;;;;;;;;;;;15.60;93.90;;;;;;4977301;28;19926;-90
2023/05/18 12:25:47;;;;;;;;;;;15.70;93.30;;;;;;4961078;28;19929;-88
2023/05/18 12:28:15;;;;;;;;;;;16.10;93.20;;;;;;4977600;28;20359;-88
2023/05/18 12:30:42;;;;;;;;;;;16.00;92.20;;;;;;4961486;28;19980;-89
2023/05/18 12:33:18;;;;;;;;;;;16.00;91.80;;;;;;4961132;28;20274;-89
2023/05/18 12:35:46;;;;;;;;;;;15.70;92.80;;;;;;4961257;28;19926;-89
2023/05/18 12:38:26;;;;;;;;;;;15.80;92.30;;;;;;4961706;28;19926;-90
2023/05/18 12:40:53;;;;;;;;;;;16.20;93.30;;;;;;4961376;28;19925;-88
2023/05/18 12:43:19;;;;;;;;;;;14.80;92.00;;;;;;4978168;28;19996;-87
2023/05/18 12:45:45;;;;;;;;;;;15.80;92.80;;;;;;4961026;28;19926;-90
2023/05/18 12:48:13;;;;;;;;;;;13.80;92.30;;;;;;4961227;28;19925;-90
2023/05/18 12:50:52;;;;;;;;;;;15.50;92.70;;;;;;4961168;28;20025;-90
2023/05/18 12:53:20;;;;;;;;;;;15.80;92.10;;;;;;4961004;28;19925;-91
2023/05/18 12:55:57;;;;;;;;;;;16.00;93.70;;;;;;4977781;28;20309;-90
2023/05/18 12:58:28;;;;;;;;;;;16.40;91.90;;;;;;4961600;28;19930;-92
2023/05/18 13:00:56;;;;;;;;;;;16.20;92.90;;;;;;4976915;28;19933;-89
2023/05/18 13:03:23;;;;;;;;;;;16.60;91.10;;;;;;4960611;28;20432;-88
2023/05/18 13:06:02;;;;;;;;;;;16.20;93.00;;;;;;4961240;28;20049;-88
2023/05/18 13:08:30;;;;;;;;;;;16.30;90.80;;;;;;4960391;28;20371;-89
2023/05/18 13:10:59;;;;;;;;;;;16.20;90.80;;;;;;4961055;28;19933;-88
2023/05/18 13:13:25;;;;;;;;;;;16.20;90.80;;;;;;4960924;28;19933;-89
2023/05/18 13:15:51;;;;;;;;;;;16.20;93.80;;;;;;4960852;28;19980;-87
2023/05/18 13:18:16;;;;;;;;;;;16.10;94.70;;;;;;4977386;28;20339;-87
2023/05/18 13:20:44;;;;;;;;;;;16.10;93.40;;;;;;4964366;28;19983;-87
2023/05/18 13:23:11;;;;;;;;;;;16.60;92.60;;;;;;4964225;28;20316;-88
2023/05/18 13:25:37;;;;;;;;;;;15.90;92.00;;;;;;4964036;28;19925;-87
2023/05/18 13:28:05;;;;;;;;;;;15.90;91.90;;;;;;4964390;28;20016;-87
2023/05/18 13:30:31;;;;;;;;;;;14.70;92.90;;;;;;4964035;28;19933;-87
2023/05/18 13:32:58;;;;;;;;;;;15.50;93.10;;;;;;4980755;28;19931;-87
2023/05/18 13:35:26;;;;;;;;;;;15.60;93.50;;;;;;4964086;28;19926;-88
2023/05/18 13:37:52;;;;;;;;;;;15.40;95.10;;;;;;4981315;28;19932;-87
2023/05/18 13:40:18;;;;;;;;;;;15.10;95.00;;;;;;4964130;28;19926;-88
2023/05/18 13:42:45;;;;;;;;;;;15.00;94.00;;;;;;4964832;28;19977;-88
2023/05/18 13:45:11;;;;;;;;;;;16.70;94.70;;;;;;4964652;28;19932;-89
2023/05/18 13:47:37;;;;;;;;;;;14.90;95.30;;;;;;4964939;28;19980;-88
2023/05/18 13:50:09;;;;;;;;;;;14.70;96.60;;;;;;4963782;28;19933;-88
2023/05/18 13:52:35;;;;;;;;;;;15.10;96.60;;;;;;4965213;28;19992;-87
2023/05/18 13:55:01;;;;;;;;;;;15.10;96.80;;;;;;4980770;28;20398;-89
2023/05/18 13:57:29;;;;;;;;;;;15.10;96.30;;;;;;4980274;28;19979;-88
2023/05/18 13:59:57;;;;;;;;;;;15.10;96.20;;;;;;4949041;28;19926;-87
2023/05/18 14:02:23;;;;;;;;;;;15.50;96.80;;;;;;4964042;28;19925;-88
2023/05/18 14:04:50;;;;;;;;;;;15.40;95.40;;;;;;4979858;28;19926;-88
2023/05/18 14:07:18;;;;;;;;;;;15.50;95.90;;;;;;4947569;28;20084;-87
2023/05/18 14:09:46;;;;;;;;;;;15.50;94.90;;;;;;4947669;28;19925;-88
2023/05/18 14:12:12;;;;;;;;;;;17.90;96.70;;;;;;4963335;28;20290;-87
2023/05/18 14:14:39;;;;;;;;;;;15.40;98.40;;;;;;4979370;28;19926;-88
2023/05/18 14:17:08;;;;;;;;;;;15.50;95.30;;;;;;4963189;28;20032;-90
2023/05/18 14:19:36;;;;;;;;;;;15.30;96.30;;;;;;4963782;28;19932;-88
2023/05/18 14:22:05;;;;;;;;;;;15.20;97.40;;;;;;4963734;28;19929;-88
2023/05/18 14:24:33;;;;;;;;;;;15.30;98.30;;;;;;4963554;28;20353;-88
2023/05/18 14:26:59;;;;;;;;;;;15.30;98.10;;;;;;4979669;28;19934;-87
2023/05/18 14:29:24;;;;;;;;;;;15.30;97.30;;;;;;4979269;28;19989;-88
2023/05/18 14:31:52;;;;;;;;;;;15.60;96.50;;;;;;4963844;28;19926;-88